createdAt,value
2018-06-28T00:01:51.232Z,3.60
2018-06-28T00:04:18.553Z,3.80
2018-06-28T00:06:45.816Z,3.60
2018-06-28T00:09:13.107Z,4.10
2018-06-28T00:11:40.393Z,3.83
2018-06-28T00:14:07.661Z,4.17
2018-06-28T00:16:35.048Z,4.30
2018-06-28T00:19:02.322Z,4.47
2018-06-28T00:21:29.596Z,5.20
2018-06-28T00:23:57.007Z,4.30
2018-06-28T00:26:24.328Z,4.37
2018-06-28T00:28:51.608Z,4.37
2018-06-28T00:31:18.910Z,4.53
2018-06-28T00:33:46.180Z,4.30
2018-06-28T00:36:13.478Z,4.40
2018-06-28T00:38:40.753Z,4.70
2018-06-28T00:41:08.245Z,4.57
2018-06-28T00:43:35.530Z,4.87
2018-06-28T00:46:02.897Z,4.63
2018-06-28T00:48:30.165Z,4.70
2018-06-28T00:50:57.477Z,4.77
2018-06-28T00:53:24.748Z,4.77
2018-06-28T00:55:52.046Z,4.50
2018-06-28T00:58:19.396Z,5.10
2018-06-28T01:00:46.708Z,4.80
2018-06-28T01:03:13.992Z,4.57
2018-06-28T01:05:42.089Z,4.57
2018-06-28T01:08:09.378Z,4.70
2018-06-28T01:10:36.725Z,4.77
2018-06-28T01:13:04.076Z,4.10
2018-06-28T01:15:31.424Z,4.50
2018-06-28T01:17:58.709Z,4.27
2018-06-28T01:20:26.005Z,4.20
2018-06-28T01:22:53.303Z,4.40
2018-06-28T01:25:20.614Z,3.90
2018-06-28T01:27:47.916Z,3.93
2018-06-28T01:30:15.180Z,4.10
2018-06-28T01:32:42.468Z,4.23
2018-06-28T01:35:09.793Z,3.70
2018-06-28T01:37:37.071Z,3.80
2018-06-28T01:40:04.422Z,3.83
2018-06-28T01:42:37.183Z,3.63
2018-06-28T01:45:04.520Z,4.10
2018-06-28T01:47:31.874Z,4.33
2018-06-28T01:49:59.223Z,4.33
2018-06-28T01:52:26.538Z,4.20
2018-06-28T01:54:53.821Z,4.90
2018-06-28T01:57:21.169Z,4.63
2018-06-28T01:59:48.512Z,3.93
2018-06-28T02:02:15.827Z,4.33
2018-06-28T02:04:43.093Z,4.77
2018-06-28T02:07:10.364Z,5.10
2018-06-28T02:09:37.630Z,4.13
2018-06-28T02:12:04.925Z,4.97
2018-06-28T02:14:32.199Z,4.93
2018-06-28T02:16:59.501Z,4.50
2018-06-28T02:19:26.844Z,4.70
2018-06-28T02:21:54.114Z,4.33
2018-06-28T02:24:21.387Z,4.40
2018-06-28T02:26:48.680Z,4.00
2018-06-28T02:29:15.932Z,3.73
2018-06-28T02:31:43.228Z,4.20
2018-06-28T02:34:10.493Z,4.30
2018-06-28T02:36:37.757Z,4.23
2018-06-28T02:39:06.320Z,4.27
2018-06-28T02:41:33.596Z,4.20
2018-06-28T02:44:00.872Z,3.70
2018-06-28T02:46:28.160Z,3.83
2018-06-28T02:48:55.421Z,4.67
2018-06-28T02:51:22.733Z,4.20
2018-06-28T02:53:50.006Z,4.00
2018-06-28T02:56:17.313Z,4.07
2018-06-28T02:58:44.561Z,3.57
2018-06-28T03:01:11.856Z,4.47
2018-06-28T03:03:39.140Z,4.10
2018-06-28T03:06:06.453Z,3.83
2018-06-28T03:08:33.720Z,3.70
2018-06-28T03:11:00.973Z,4.10
2018-06-28T03:13:28.273Z,3.80
2018-06-28T03:15:55.542Z,4.10
2018-06-28T03:18:22.846Z,3.83
2018-06-28T03:20:50.113Z,4.00
2018-06-28T03:23:17.416Z,4.53
2018-06-28T03:25:44.703Z,5.27
2018-06-28T03:28:12.021Z,4.40
2018-06-28T03:30:39.315Z,4.20
2018-06-28T03:33:06.673Z,4.10
2018-06-28T03:35:33.980Z,4.07
2018-06-28T03:38:01.297Z,4.77
2018-06-28T03:40:29.509Z,4.27
2018-06-28T03:42:56.799Z,4.30
2018-06-28T03:45:24.071Z,4.20
2018-06-28T03:47:51.357Z,4.17
2018-06-28T03:50:18.681Z,4.50
2018-06-28T03:52:45.961Z,3.80
2018-06-28T03:55:13.244Z,4.33
2018-06-28T03:57:40.561Z,4.50
2018-06-28T04:00:07.840Z,4.30
2018-06-28T04:02:35.123Z,4.23
2018-06-28T04:05:02.412Z,3.93
2018-06-28T04:07:29.699Z,4.00
2018-06-28T04:09:56.986Z,4.03
2018-06-28T04:12:24.280Z,4.50
2018-06-28T04:14:51.541Z,4.40
2018-06-28T04:17:18.838Z,4.70
2018-06-28T04:19:46.104Z,4.33
2018-06-28T04:22:17.988Z,4.40
2018-06-28T04:24:45.296Z,4.43
2018-06-28T04:27:12.631Z,4.33
2018-06-28T04:29:39.900Z,4.30
2018-06-28T04:32:07.290Z,4.73
2018-06-28T04:34:34.548Z,4.20
2018-06-28T04:37:01.861Z,4.80
2018-06-28T04:39:29.120Z,4.33
2018-06-28T04:41:56.464Z,4.27
2018-06-28T04:44:23.717Z,4.30
2018-06-28T04:46:51.028Z,4.13
2018-06-28T04:49:18.314Z,4.43
2018-06-28T04:51:45.576Z,4.67
2018-06-28T04:54:12.907Z,4.60
2018-06-28T04:56:40.191Z,4.30
2018-06-28T04:59:07.680Z,4.27
2018-06-28T05:01:34.974Z,4.50
2018-06-28T05:04:02.314Z,4.33
2018-06-28T05:06:29.660Z,4.53
2018-06-28T05:08:56.954Z,4.10
2018-06-28T05:11:24.216Z,4.40
2018-06-28T05:13:51.508Z,4.47
2018-06-28T05:16:18.801Z,4.53
2018-06-28T05:18:46.116Z,4.50
2018-06-28T05:21:13.455Z,4.80
2018-06-28T05:23:40.754Z,5.10
2018-06-28T05:26:08.042Z,4.70
2018-06-28T05:28:35.356Z,5.37
2018-06-28T05:31:02.780Z,5.03
2018-06-28T05:33:30.082Z,4.83
2018-06-28T05:35:57.563Z,4.30
2018-06-28T05:38:24.872Z,4.80
2018-06-28T05:40:52.132Z,4.60
2018-06-28T05:43:19.471Z,4.90
2018-06-28T05:45:46.760Z,4.80
2018-06-28T05:48:14.056Z,4.60
2018-06-28T05:50:41.332Z,4.73
2018-06-28T05:53:08.642Z,4.90
2018-06-28T05:55:36.416Z,4.60
2018-06-28T05:58:03.726Z,4.37
2018-06-28T06:00:30.992Z,4.33
2018-06-28T06:02:58.316Z,4.47
2018-06-28T06:05:25.576Z,4.30
2018-06-28T06:07:52.869Z,4.47
2018-06-28T06:10:20.270Z,4.10
2018-06-28T06:12:47.548Z,4.00
2018-06-28T06:15:14.876Z,4.10
2018-06-28T06:17:42.140Z,4.20
2018-06-28T06:20:09.464Z,4.23
2018-06-28T06:22:36.780Z,4.20
2018-06-28T06:25:04.442Z,3.90
2018-06-28T06:27:31.733Z,3.80
2018-06-28T06:29:59.032Z,3.80
2018-06-28T06:32:26.318Z,3.70
2018-06-28T06:34:53.680Z,3.90
2018-06-28T06:37:21.033Z,3.50
2018-06-28T06:39:48.330Z,3.83
2018-06-28T06:42:15.628Z,3.93
2018-06-28T06:44:42.980Z,3.50
2018-06-28T06:47:10.276Z,4.37
2018-06-28T06:49:37.576Z,4.40
2018-06-28T06:52:04.961Z,3.67
2018-06-28T06:54:32.236Z,3.60
2018-06-28T06:56:59.549Z,3.13
2018-06-28T06:59:26.851Z,3.27
2018-06-28T07:01:54.116Z,3.30
2018-06-28T07:04:21.440Z,3.50
2018-06-28T07:06:48.720Z,3.40
2018-06-28T07:09:16.048Z,3.40
2018-06-28T07:11:43.316Z,3.33
2018-06-28T07:14:11.147Z,3.43
2018-06-28T07:16:38.477Z,3.70
2018-06-28T07:19:05.797Z,3.47
2018-06-28T07:21:33.080Z,3.37
2018-06-28T07:24:00.362Z,2.87
2018-06-28T07:26:27.688Z,3.50
2018-06-28T07:28:55.000Z,3.07
2018-06-28T07:31:22.252Z,3.00
2018-06-28T07:33:49.529Z,2.77
2018-06-28T07:36:16.900Z,2.60
2018-06-28T07:38:44.188Z,2.53
2018-06-28T07:41:11.469Z,2.80
2018-06-28T07:43:38.753Z,2.70
2018-06-28T07:46:06.114Z,3.10
2018-06-28T07:48:33.380Z,2.90
2018-06-28T07:51:00.676Z,2.97
2018-06-28T07:53:27.976Z,2.60
2018-06-28T07:55:55.264Z,2.60
2018-06-28T07:58:22.704Z,2.63
2018-06-28T08:00:49.976Z,2.70
2018-06-28T08:03:17.256Z,2.60
2018-06-28T08:05:44.530Z,2.90
2018-06-28T08:08:11.838Z,2.50
2018-06-28T08:10:39.136Z,2.80
2018-06-28T08:13:06.442Z,2.77
2018-06-28T08:15:33.744Z,3.17
2018-06-28T08:18:01.021Z,2.50
2018-06-28T08:20:28.356Z,2.70
2018-06-28T08:22:55.709Z,2.90
2018-06-28T08:25:23.015Z,2.60
2018-06-28T08:27:50.268Z,2.73
2018-06-28T08:30:17.597Z,3.07
2018-06-28T08:32:44.909Z,2.87
2018-06-28T08:35:12.200Z,2.90
2018-06-28T08:37:39.473Z,3.00
2018-06-28T08:40:06.786Z,2.97
2018-06-28T08:42:34.120Z,3.07
2018-06-28T08:45:01.446Z,2.70
2018-06-28T08:47:28.732Z,2.63
2018-06-28T08:49:56.040Z,3.00
2018-06-28T08:52:23.371Z,2.83
2018-06-28T08:54:50.661Z,2.83
2018-06-28T08:57:17.980Z,2.90
2018-06-28T08:59:45.267Z,2.80
2018-06-28T09:02:12.584Z,2.43
2018-06-28T09:04:39.892Z,2.70
2018-06-28T09:07:07.192Z,2.87
2018-06-28T09:09:34.521Z,2.87
2018-06-28T09:12:01.813Z,2.73
2018-06-28T09:14:29.080Z,2.80
2018-06-28T09:16:56.417Z,2.63
2018-06-28T09:19:23.756Z,2.77
2018-06-28T09:21:51.074Z,2.80
2018-06-28T09:24:18.336Z,3.00
2018-06-28T09:26:45.672Z,2.70
2018-06-28T09:29:12.936Z,2.90
2018-06-28T09:31:40.244Z,3.23
2018-06-28T09:34:07.524Z,2.90
2018-06-28T09:36:34.889Z,2.60
2018-06-28T09:39:04.846Z,3.03
2018-06-28T09:41:32.144Z,2.90
2018-06-28T09:43:59.464Z,2.83
2018-06-28T09:46:26.804Z,2.93
2018-06-28T09:48:54.157Z,3.20
2018-06-28T09:51:21.459Z,2.73
2018-06-28T09:53:49.009Z,2.50
2018-06-28T09:56:16.333Z,2.90
2018-06-28T09:58:43.641Z,2.90
2018-06-28T10:01:10.940Z,2.70
2018-06-28T10:03:38.284Z,3.27
2018-06-28T10:06:05.620Z,3.10
2018-06-28T10:08:32.909Z,3.00
2018-06-28T10:11:00.195Z,2.60
2018-06-28T10:13:27.465Z,2.70
2018-06-28T10:15:54.741Z,2.93
2018-06-28T10:18:21.988Z,2.73
2018-06-28T10:20:49.272Z,3.10
2018-06-28T10:23:26.264Z,3.10
2018-06-28T10:25:53.707Z,3.10
2018-06-28T10:28:21.098Z,2.80
2018-06-28T10:30:48.757Z,2.93
2018-06-28T10:33:16.058Z,2.63
2018-06-28T10:35:43.348Z,2.80
2018-06-28T10:38:10.620Z,2.83
2018-06-28T10:40:37.921Z,2.90
2018-06-28T10:43:05.172Z,3.00
2018-06-28T10:45:32.456Z,3.00
2018-06-28T10:47:59.716Z,2.77
2018-06-28T10:50:27.059Z,2.97
2018-06-28T10:52:54.394Z,2.70
2018-06-28T10:55:21.655Z,2.80
2018-06-28T10:57:49.127Z,2.30
2018-06-28T11:00:16.477Z,2.77
2018-06-28T11:02:43.818Z,2.60
2018-06-28T11:05:11.101Z,2.77
2018-06-28T11:07:38.482Z,2.60
2018-06-28T11:10:06.233Z,2.70
2018-06-28T11:12:33.676Z,2.93
2018-06-28T11:15:01.317Z,2.60
2018-06-28T11:17:28.654Z,2.80
2018-06-28T11:19:56.109Z,2.67
2018-06-28T11:22:23.504Z,2.83
2018-06-28T11:24:50.775Z,2.60
2018-06-28T11:27:18.062Z,2.60
2018-06-28T11:29:45.333Z,2.57
2018-06-28T11:32:12.759Z,2.70
2018-06-28T11:34:40.093Z,2.90
2018-06-28T11:37:07.428Z,2.70
2018-06-28T11:39:34.736Z,2.97
2018-06-28T11:42:02.065Z,2.40
2018-06-28T11:44:29.343Z,3.13
2018-06-28T11:46:56.648Z,2.87
2018-06-28T11:49:23.964Z,2.77
2018-06-28T11:51:51.257Z,2.70
2018-06-28T11:54:20.600Z,3.00
2018-06-28T11:56:47.972Z,2.77
2018-06-28T11:59:15.283Z,2.65
2018-06-28T12:01:42.597Z,2.40
2018-06-28T12:04:10.692Z,2.60
2018-06-28T12:06:37.972Z,2.40
2018-06-28T12:09:06.828Z,2.70
2018-06-28T12:11:34.125Z,2.60
2018-06-28T12:14:01.402Z,2.70
2018-06-28T12:16:28.724Z,2.80
2018-06-28T12:18:55.973Z,2.75
2018-06-28T12:21:23.283Z,2.40
2018-06-28T12:23:50.565Z,2.80
2018-06-28T12:26:17.838Z,2.50
2018-06-28T12:28:45.175Z,2.45
2018-06-28T12:31:12.494Z,2.35
2018-06-28T12:33:39.786Z,2.45
2018-06-28T12:36:07.048Z,2.80
2018-06-28T12:38:34.359Z,2.62
2018-06-28T12:41:01.628Z,2.70
2018-06-28T12:43:29.980Z,2.70
2018-06-28T12:46:03.081Z,2.40
2018-06-28T12:48:30.438Z,2.40
2018-06-28T12:50:58.261Z,2.47
2018-06-28T12:53:25.577Z,2.58
2018-06-28T12:56:25.208Z,2.27
2018-06-28T12:58:53.667Z,2.60
2018-06-28T13:01:22.227Z,2.40
2018-06-28T13:03:49.680Z,2.90
2018-06-28T13:06:17.329Z,2.60
2018-06-28T13:08:44.646Z,2.65
2018-06-28T13:11:11.928Z,2.27
2018-06-28T13:13:40.097Z,2.70
2018-06-28T13:16:07.396Z,2.70
2018-06-28T13:18:34.730Z,2.47
2018-06-28T13:21:02.009Z,2.50
2018-06-28T13:23:29.300Z,2.17
2018-06-28T13:25:56.592Z,2.37
2018-06-28T13:28:23.881Z,2.35
2018-06-28T13:30:54.036Z,2.60
2018-06-28T13:33:21.358Z,2.60
2018-06-28T13:35:48.713Z,2.75
2018-06-28T13:38:16.025Z,2.72
2018-06-28T13:40:43.434Z,2.33
2018-06-28T13:43:10.928Z,2.60
2018-06-28T13:45:38.248Z,2.70
2018-06-28T13:48:06.577Z,2.52
2018-06-28T13:50:36.330Z,2.77
2018-06-28T13:53:04.797Z,2.37
2018-06-28T13:55:32.648Z,2.40
2018-06-28T13:57:59.986Z,2.70
2018-06-28T14:00:27.264Z,2.70
2018-06-28T14:02:54.681Z,2.80
2018-06-28T14:05:21.968Z,2.90
2018-06-28T14:07:49.347Z,2.42
2018-06-28T14:10:16.650Z,2.55
2018-06-28T14:12:43.912Z,2.87
2018-06-28T14:15:11.180Z,2.60
2018-06-28T14:17:38.533Z,2.70
2018-06-28T14:20:06.781Z,2.70
2018-06-28T14:22:40.689Z,2.62
2018-06-28T14:25:07.948Z,2.90
2018-06-28T14:27:35.291Z,2.87
2018-06-28T14:30:02.788Z,2.80
2018-06-28T14:32:30.113Z,2.85
2018-06-28T14:34:57.399Z,2.70
2018-06-28T14:37:24.796Z,2.50
2018-06-28T14:39:52.096Z,2.85
2018-06-28T14:42:19.348Z,2.50
2018-06-28T14:44:49.052Z,2.83
2018-06-28T14:47:16.299Z,2.70
2018-06-28T14:49:43.603Z,2.30
2018-06-28T14:52:10.899Z,2.77
2018-06-28T14:54:38.253Z,2.80
2018-06-28T14:57:07.837Z,2.85
2018-06-28T14:59:35.264Z,2.40
2018-06-28T15:02:02.555Z,2.90
2018-06-28T15:04:29.860Z,2.87
2018-06-28T15:06:59.339Z,2.70
2018-06-28T15:09:26.718Z,2.65
2018-06-28T15:11:54.068Z,3.00
2018-06-28T15:14:21.427Z,2.55
2018-06-28T15:16:48.718Z,2.87
2018-06-28T15:19:16.024Z,2.80
2018-06-28T15:21:43.417Z,2.75
2018-06-28T15:24:10.712Z,2.67
2018-06-28T15:26:37.986Z,2.80
2018-06-28T15:29:05.346Z,2.45
2018-06-28T15:31:32.596Z,2.70
2018-06-28T15:33:59.920Z,2.95
2018-06-28T15:36:27.227Z,2.77
2018-06-28T15:38:54.536Z,2.62
2018-06-28T15:41:21.860Z,2.90
2018-06-28T15:43:49.175Z,2.52
2018-06-28T15:46:16.485Z,2.67
2018-06-28T15:48:43.816Z,2.62
2018-06-28T15:51:11.065Z,3.10
2018-06-28T15:53:38.380Z,2.67
2018-06-28T15:56:05.691Z,2.75
2018-06-28T15:58:41.280Z,2.42
2018-06-28T16:01:10.571Z,2.60
2018-06-28T16:03:38.958Z,2.77
2018-06-28T16:06:06.341Z,2.80
2018-06-28T16:08:33.632Z,2.40
2018-06-28T16:11:00.972Z,2.45
2018-06-28T16:13:28.229Z,2.55
2018-06-28T16:15:55.564Z,2.60
2018-06-28T16:18:22.840Z,2.75
2018-06-28T16:20:50.189Z,2.58
2018-06-28T16:23:17.488Z,2.90
2018-06-28T16:25:44.788Z,2.60
2018-06-28T16:28:12.070Z,2.87
2018-06-28T16:30:39.366Z,2.60
2018-06-28T16:33:06.675Z,2.60
2018-06-28T16:35:34.194Z,2.70
2018-06-28T16:38:01.526Z,2.60
2018-06-28T16:40:28.834Z,2.40
2018-06-28T16:42:56.272Z,2.52
2018-06-28T16:45:23.577Z,2.83
2018-06-28T16:47:52.183Z,2.80
2018-06-28T16:50:19.932Z,2.60
2018-06-28T16:52:47.330Z,2.70
2018-06-28T16:55:16.781Z,2.50
2018-06-28T16:57:44.216Z,2.85
2018-06-28T17:00:11.592Z,2.62
2018-06-28T17:02:38.987Z,2.40
2018-06-28T17:05:06.328Z,2.17
2018-06-28T17:07:33.823Z,2.75
2018-06-28T17:10:01.245Z,2.62
2018-06-28T17:12:28.530Z,2.85
2018-06-28T17:14:55.914Z,2.87
2018-06-28T17:17:23.237Z,2.70
2018-06-28T17:19:50.575Z,2.65
2018-06-28T17:22:17.901Z,2.67
2018-06-28T17:24:45.215Z,2.70
2018-06-28T17:27:12.705Z,3.70
2018-06-28T17:29:40.015Z,3.90
2018-06-28T17:32:07.449Z,5.85
2018-06-28T17:34:34.840Z,4.47
2018-06-28T17:37:02.154Z,2.70
2018-06-28T17:39:29.613Z,2.67
2018-06-28T17:41:56.932Z,3.08
2018-06-28T17:44:25.516Z,3.20
2018-06-28T17:46:52.833Z,3.00
2018-06-28T17:49:20.342Z,3.00
2018-06-28T17:51:47.643Z,2.87
2018-06-28T17:54:15.025Z,2.70
2018-06-28T17:56:42.352Z,2.95
2018-06-28T17:59:09.884Z,3.10
2018-06-28T18:01:37.182Z,2.80
2018-06-28T18:04:04.527Z,2.72
2018-06-28T18:06:31.867Z,2.67
2018-06-28T18:08:59.570Z,2.90
2018-06-28T18:11:26.813Z,2.83
2018-06-28T18:13:54.104Z,2.92
2018-06-28T18:16:21.388Z,2.90
2018-06-28T18:18:48.775Z,2.62
2018-06-28T18:21:16.117Z,2.92
2018-06-28T18:23:43.472Z,3.02
2018-06-28T18:26:10.775Z,2.62
2018-06-28T18:28:38.127Z,3.08
2018-06-28T18:31:05.574Z,2.70
2018-06-28T18:33:32.904Z,2.83
2018-06-28T18:36:00.241Z,2.95
2018-06-28T18:38:27.528Z,2.83
2018-06-28T18:40:54.861Z,3.40
2018-06-28T18:43:22.952Z,3.00
2018-06-28T18:45:50.261Z,3.08
2018-06-28T18:48:17.546Z,3.77
2018-06-28T18:50:45.057Z,3.85
2018-06-28T18:53:12.309Z,3.00
2018-06-28T18:55:39.644Z,3.53
2018-06-28T18:58:06.957Z,3.97
2018-06-28T19:00:34.265Z,3.53
2018-06-28T19:03:03.543Z,3.97
2018-06-28T19:05:30.887Z,4.33
2018-06-28T19:07:58.184Z,4.03
2018-06-28T19:10:30.967Z,2.97
2018-06-28T19:12:58.265Z,3.40
2018-06-28T19:15:31.095Z,2.60
2018-06-28T19:17:58.478Z,3.33
2018-06-28T19:20:25.913Z,2.83
2018-06-28T19:22:58.615Z,2.60
2018-06-28T19:25:25.908Z,2.67
2018-06-28T19:27:53.193Z,2.63
2018-06-28T19:30:25.804Z,2.60
2018-06-28T19:32:53.104Z,2.57
2018-06-28T19:35:20.447Z,3.30
2018-06-28T19:37:48.701Z,2.83
2018-06-28T19:40:21.397Z,3.87
2018-06-28T19:42:57.745Z,2.93
2018-06-28T19:45:25.038Z,2.87
2018-06-28T19:47:52.408Z,2.60
2018-06-28T19:50:25.011Z,2.33
2018-06-28T19:52:52.643Z,2.70
2018-06-28T19:55:20.290Z,2.50
2018-06-28T19:57:47.589Z,4.27
2018-06-28T20:00:20.216Z,2.83
2018-06-28T20:02:52.889Z,2.63
2018-06-28T20:05:20.208Z,2.90
2018-06-28T20:07:47.529Z,2.60
2018-06-28T20:10:14.876Z,2.90
2018-06-28T20:12:47.808Z,3.03
2018-06-28T20:15:20.448Z,2.50
2018-06-28T20:17:58.832Z,2.73
2018-06-28T20:20:26.947Z,2.70
2018-06-28T20:22:54.590Z,2.50
2018-06-28T20:25:21.880Z,2.67
2018-06-28T20:27:54.617Z,3.00
2018-06-28T20:30:27.256Z,2.80
2018-06-28T20:33:00.042Z,3.03
2018-06-28T20:35:27.403Z,2.90
2018-06-28T20:37:54.675Z,2.70
2018-06-28T20:40:21.929Z,2.83
2018-06-28T20:42:49.257Z,2.70
2018-06-28T20:45:16.595Z,3.00
2018-06-28T20:47:43.924Z,2.80
2018-06-28T20:50:11.213Z,2.70
2018-06-28T20:52:38.517Z,2.80
2018-06-28T20:55:05.883Z,3.00
2018-06-28T20:57:34.022Z,3.20
2018-06-28T21:00:01.321Z,2.63
2018-06-28T21:02:28.628Z,2.60
2018-06-28T21:04:55.910Z,3.07
2018-06-28T21:07:23.228Z,2.70
2018-06-28T21:09:50.538Z,2.97
2018-06-28T21:12:17.817Z,2.77
2018-06-28T21:14:45.165Z,3.03
2018-06-28T21:17:12.584Z,2.83
2018-06-28T21:19:39.880Z,3.00
2018-06-28T21:22:07.177Z,2.90
2018-06-28T21:24:34.481Z,2.90
2018-06-28T21:27:01.789Z,3.07
2018-06-28T21:29:29.060Z,2.90
2018-06-28T21:31:56.352Z,2.90
2018-06-28T21:34:23.646Z,2.90
2018-06-28T21:36:51.020Z,2.93
2018-06-28T21:39:18.305Z,3.03
2018-06-28T21:41:45.613Z,3.07
2018-06-28T21:44:12.890Z,3.00
2018-06-28T21:46:40.212Z,3.07
2018-06-28T21:49:07.841Z,3.10
2018-06-28T21:51:35.176Z,2.97
2018-06-28T21:54:02.505Z,2.87
2018-06-28T21:56:29.846Z,3.23
2018-06-28T21:58:57.230Z,2.87
2018-06-28T22:01:24.531Z,3.10
2018-06-28T22:03:51.937Z,2.63
2018-06-28T22:06:19.302Z,2.80
2018-06-28T22:08:47.110Z,2.80
2018-06-28T22:11:14.414Z,2.70
2018-06-28T22:13:41.752Z,3.10
2018-06-28T22:16:09.062Z,2.80
2018-06-28T22:18:36.361Z,3.10
2018-06-28T22:21:03.671Z,3.20
2018-06-28T22:23:30.973Z,2.93
2018-06-28T22:25:58.259Z,2.80
2018-06-28T22:28:25.529Z,2.80
2018-06-28T22:30:53.420Z,2.80
2018-06-28T22:33:20.672Z,3.03
2018-06-28T22:35:48.056Z,3.17
2018-06-28T22:38:15.359Z,3.00
2018-06-28T22:40:42.636Z,2.80
2018-06-28T22:43:10.171Z,2.80
2018-06-28T22:45:37.466Z,2.80
2018-06-28T22:48:04.800Z,3.23
2018-06-28T22:50:32.096Z,2.93
2018-06-28T22:52:59.383Z,2.80
2018-06-28T22:55:26.684Z,3.20
2018-06-28T22:57:53.980Z,3.13
2018-06-28T23:00:23.497Z,3.20
2018-06-28T23:02:50.837Z,3.20
2018-06-28T23:05:18.122Z,3.13
2018-06-28T23:07:45.423Z,3.80
2018-06-28T23:10:12.688Z,3.27
2018-06-28T23:12:40.016Z,3.27
2018-06-28T23:15:07.300Z,3.30
2018-06-28T23:17:34.577Z,2.70
2018-06-28T23:20:01.873Z,2.67
2018-06-28T23:22:46.054Z,2.70
2018-06-28T23:25:14.133Z,2.70
2018-06-28T23:27:42.017Z,2.70
2018-06-28T23:30:09.283Z,2.90
2018-06-28T23:32:36.707Z,3.07
2018-06-28T23:35:04.210Z,3.47
2018-06-28T23:37:31.513Z,3.10
2018-06-28T23:39:58.799Z,3.10
2018-06-28T23:42:26.266Z,3.33
2018-06-28T23:44:53.397Z,3.53
2018-06-28T23:47:20.716Z,3.20
2018-06-28T23:49:48.014Z,3.30
2018-06-28T23:52:15.316Z,3.40
2018-06-28T23:54:42.630Z,3.50
2018-06-28T23:57:09.936Z,3.20
2018-06-28T23:59:37.268Z,3.07
